KLEW/LEW METAR and TAF weather

Enter ICAO airport designator
Station Type Date Time Source
KLEW METAR 2019/12/09 22:05 UTC NOAA

KLEW 092205Z AUTO 00000KT 3/4SM -RA BR BKN004 OVC007 03/03 A2985 RMK AO2 P0001


Station Type Date Time Source
KLEW Decoded METAR 2019/12/09 22:05 UTC NOAA

Auburn-Lewiston, ME, United States (KLEW) 44-03N 070-17W
Dec 09, 2019 - 05:05 PM EST / 2019.12.09 2205 UTC
Wind: Calm:0
Visibility: 3/4 mile(s):0
Sky conditions: overcast
Weather: light rain; mist
Precipitation last hour: 0.01 inches
Temperature: 37 F (3 C)
Dew Point: 37 F (3 C)
Relative Humidity: 100%
Pressure (altimeter): 29.85 in. Hg (1010 hPa)
ob: KLEW 092205Z AUTO 00000KT 3/4SM -RA BR BKN004 OVC007 03/03 A2985 RMK AO2 P0001
cycle: 22

Station Type Date Time Source
KLEW TAF UTC NOAA

Error!

Example: see airport list